TimeCDT,TemperatureF,Dew PointF,Humidity,Sea Level PressureIn,VisibilityMPH,Wind Direction,Wind SpeedMPH,Gust SpeedMPH,PrecipitationIn,Events,Conditions,WindDirDegrees,DateUTC
12:53 AM,82.0,75.0,79,29.97,10.0,SE,10.4,-,N/A,,Partly Cloudy,140,2013-07-20 05:53:00
1:53 AM,81.0,73.9,79,29.96,10.0,SSE,5.8,-,N/A,,Clear,160,2013-07-20 06:53:00
2:39 AM,82.4,75.2,79,29.94,10.0,SE,8.1,-,N/A,,Mostly Cloudy,130,2013-07-20 07:39:00
2:53 AM,82.0,75.9,82,29.94,10.0,South,6.9,-,0.00,Rain,Light Rain,170,2013-07-20 07:53:00
3:21 AM,80.6,73.4,79,29.94,10.0,SSE,6.9,-,0.00,,Scattered Clouds,160,2013-07-20 08:21:00
3:53 AM,81.0,75.0,82,29.94,10.0,South,4.6,-,0.00,,Partly Cloudy,170,2013-07-20 08:53:00
4:53 AM,80.1,73.0,79,29.93,10.0,South,3.5,-,N/A,,Clear,170,2013-07-20 09:53:00
5:53 AM,80.1,73.9,81,29.93,10.0,SSE,4.6,-,N/A,,Clear,160,2013-07-20 10:53:00
6:53 AM,80.1,73.9,81,29.94,10.0,SE,5.8,-,N/A,,Clear,140,2013-07-20 11:53:00
7:53 AM,82.9,73.9,74,29.95,10.0,SE,6.9,-,N/A,,Clear,130,2013-07-20 12:53:00
8:20 AM,84.2,75.2,74,29.95,10.0,ESE,6.9,-,N/A,,Mostly Cloudy,120,2013-07-20 13:20:00
8:35 AM,84.2,75.2,74,29.94,10.0,SE,6.9,-,N/A,,Scattered Clouds,140,2013-07-20 13:35:00
8:53 AM,84.0,75.0,74,29.96,10.0,SSE,6.9,-,N/A,,Clear,160,2013-07-20 13:53:00
9:53 AM,86.0,73.9,67,29.95,10.0,SE,6.9,-,N/A,,Clear,140,2013-07-20 14:53:00
10:53 AM,87.1,73.9,65,29.95,10.0,SE,9.2,-,N/A,,Clear,140,2013-07-20 15:53:00
11:53 AM,89.1,73.0,59,29.95,10.0,ESE,10.4,-,N/A,,Clear,110,2013-07-20 16:53:00
12:53 PM,91.0,73.0,55,29.94,10.0,SE,12.7,-,N/A,,Clear,130,2013-07-20 17:53:00
1:53 PM,90.0,73.9,59,29.94,10.0,SSE,12.7,-,N/A,,Clear,150,2013-07-20 18:53:00
2:53 PM,90.0,73.9,59,29.91,10.0,ESE,12.7,-,N/A,,Clear,120,2013-07-20 19:53:00
3:53 PM,90.0,75.0,61,29.90,10.0,SE,12.7,-,N/A,,Clear,130,2013-07-20 20:53:00
4:53 PM,89.1,75.0,63,29.88,10.0,SE,12.7,-,N/A,,Clear,140,2013-07-20 21:53:00
5:53 PM,88.0,75.0,65,29.87,10.0,SE,15.0,-,N/A,,Clear,130,2013-07-20 22:53:00
6:53 PM,86.0,73.9,67,29.88,10.0,SE,11.5,-,N/A,,Clear,140,2013-07-20 23:53:00
7:53 PM,84.9,75.0,72,29.87,10.0,SSE,10.4,-,N/A,,Clear,150,2013-07-21 00:53:00
8:53 PM,82.9,75.0,77,29.87,10.0,SSE,11.5,-,N/A,,Partly Cloudy,150,2013-07-21 01:53:00
9:53 PM,82.9,73.9,74,29.88,10.0,SSE,10.4,19.6,N/A,,Partly Cloudy,150,2013-07-21 02:53:00
10:53 PM,82.9,75.0,77,29.91,10.0,SSE,10.4,-,N/A,,Partly Cloudy,160,2013-07-21 03:53:00
11:53 PM,82.9,75.9,79,29.93,10.0,South,9.2,-,N/A,,Partly Cloudy,170,2013-07-21 04:53:00